^^
Meteo Knjazevac Station Historical Data
Daily Summary for August 23, 2019 Units:  English    Metric   Both
Daily Weekly Monthly Yearly Custom
  High: Low: Average:
Temperature: 95.4 °F 59.5 °F 76.5 °F
Dew Point: 68.1 °F 56 °F 61.8 °F
Humidity: 90% 37% 64%
Wind Speed: 7mph 0mph 1.8mph
Wind Gust: 15mph - -
Wind- - South
Pressure: 30.20 in 30.06 in -
Precipitation: 0.00 in    
Historical Graphs
 
 
Tabular Data for August 23, 2019
Time Temperature Dew Point Pressure Wind Wind Speed Wind Gust Humidity Rainfall Rate (Hourly) solar Conditions
00:00 67.5 °F 58.6 °F 30.13 in Calm   2 mph 73% 0.00 in 0 W/m2
00:10 67.3 °F 58.7 °F 30.13 in Calm     74% 0.00 in 0 W/m2
00:20 66.9 °F 58.7 °F 30.13 in Calm   2 mph 75% 0.00 in 0 W/m2
00:30 66.5 °F 58.3 °F 30.13 in Calm   2 mph 75% 0.00 in 0 W/m2
00:40 66.1 °F 57.9 °F 30.14 in Calm   2 mph 75% 0.00 in 0 W/m2
00:50 65.8 °F 58.4 °F 30.14 in Calm   2 mph 77% 0.00 in 0 W/m2
01:00 65.7 °F 58.3 °F 30.14 in Calm   2 mph 77% 0.00 in 0 W/m2
01:10 65.7 °F 58.3 °F 30.14 in Calm   2 mph 77% 0.00 in 0 W/m2
01:20 65.5 °F 58.4 °F 30.14 in Calm   2 mph 78% 0.00 in 0 W/m2
01:30 65.3 °F 58.3 °F 30.14 in West 1 mph 2 mph 78% 0.00 in 0 W/m2
01:40 65.1 °F 58.4 °F 30.14 in Calm   2 mph 79% 0.00 in 0 W/m2
01:50 64.7 °F 58 °F 30.14 in Calm     79% 0.00 in 0 W/m2
02:00 64.2 °F 57.6 °F 30.14 in Calm   1 mph 79% 0.00 in 0 W/m2
02:10 63.9 °F 57.6 °F 30.14 in Calm     80% 0.00 in 0 W/m2
02:20 63.5 °F 57.2 °F 30.14 in Calm   1 mph 80% 0.00 in 0 W/m2
02:30 63.1 °F 57.2 °F 30.14 in WSW 1 mph 2 mph 81% 0.00 in 0 W/m2
02:40 62.6 °F 57.4 °F 30.14 in Calm   2 mph 83% 0.00 in 0 W/m2
02:50 62.6 °F 57.4 °F 30.14 in Calm   2 mph 83% 0.00 in 0 W/m2
03:00 62.5 °F 57.2 °F 30.14 in Calm   1 mph 83% 0.00 in 0 W/m2
03:10 62.2 °F 57.3 °F 30.14 in Calm   1 mph 84% 0.00 in 0 W/m2
03:20 62.2 °F 57.3 °F 30.14 in Calm   1 mph 84% 0.00 in 0 W/m2
03:30 62.1 °F 57.2 °F 30.14 in Calm   1 mph 84% 0.00 in 0 W/m2
03:40 61.9 °F 57.3 °F 30.14 in Calm   2 mph 85% 0.00 in 0 W/m2
03:50 61.6 °F 57 °F 30.14 in SW 1 mph 2 mph 85% 0.00 in 0 W/m2
04:00 61.1 °F 56.9 °F 30.14 in WSW 1 mph 2 mph 86% 0.00 in 0 W/m2
04:10 61 °F 57.4 °F 30.15 in WSW 1 mph 2 mph 88% 0.00 in 0 W/m2
04:20 61 °F 57.1 °F 30.15 in Calm   2 mph 87% 0.00 in 0 W/m2
04:30 61.2 °F 57.6 °F 30.15 in Calm   2 mph 88% 0.00 in 0 W/m2
04:40 61.2 °F 56.9 °F 30.15 in Calm   1 mph 86% 0.00 in 0 W/m2
04:50 61 °F 56.8 °F 30.15 in Calm     86% 0.00 in 0 W/m2
05:00 61 °F 57.4 °F 30.16 in Calm   2 mph 88% 0.00 in 0 W/m2
05:10 60.7 °F 56.5 °F 30.16 in Calm   2 mph 86% 0.00 in 0 W/m2
05:20 60.6 °F 57 °F 30.16 in Calm   1 mph 88% 0.00 in 0 W/m2
05:30 60.4 °F 56.6 °F 30.16 in Calm   1 mph 87% 0.00 in 0 W/m2
05:40 60.2 °F 56.3 °F 30.17 in Calm   1 mph 87% 0.00 in 0 W/m2
05:50 59.7 °F 56.2 °F 30.17 in Calm     88% 0.00 in 6 W/m2
06:00 59.7 °F 56.2 °F 30.17 in Calm   2 mph 88% 0.00 in 14 W/m2
06:10 59.5 °F 56 °F 30.18 in Calm     88% 0.00 in 24 W/m2
06:20 59.5 °F 56.3 °F 30.18 in Calm     89% 0.00 in 38 W/m2
06:30 59.5 °F 56.3 °F 30.18 in Calm   2 mph 89% 0.00 in 55 W/m2
06:40 59.5 °F 56.3 °F 30.18 in Calm   2 mph 89% 0.00 in 75 W/m2
06:50 59.8 °F 56.8 °F 30.19 in Calm     90% 0.00 in 98 W/m2
07:00 60 °F 57.1 °F 30.19 in WSW 1 mph 1 mph 90% 0.00 in 121 W/m2
07:10 60.2 °F 57.3 °F 30.19 in Calm   1 mph 90% 0.00 in 145 W/m2
07:20 60.4 °F 57.2 °F 30.19 in Calm   1 mph 89% 0.00 in 171 W/m2
07:30 60.9 °F 57.6 °F 30.19 in Calm   1 mph 89% 0.00 in 199 W/m2
07:40 61.4 °F 58.1 °F 30.19 in Calm   1 mph 89% 0.00 in 227 W/m2
07:50 62 °F 58.7 °F 30.19 in Calm   2 mph 89% 0.00 in 260 W/m2
08:00 62.5 °F 59.3 °F 30.19 in WSW 1 mph 1 mph 89% 0.00 in 291 W/m2
08:10 63.3 °F 59.6 °F 30.19 in WSW 1 mph 4 mph 88% 0.00 in 325 W/m2
08:20 64.2 °F 60.5 °F 30.20 in Calm   3 mph 88% 0.00 in 364 W/m2
08:30 65.2 °F 60.9 °F 30.20 in SE 1 mph 5 mph 86% 0.00 in 403 W/m2
08:40 66.3 °F 61.3 °F 30.19 in ENE 2 mph 5 mph 84% 0.00 in 438 W/m2
08:50 67.4 °F 61.7 °F 30.19 in NE 1 mph 7 mph 82% 0.00 in 472 W/m2
09:00 69.1 °F 62.7 °F 30.19 in NNE 5 mph 11 mph 80% 0.00 in 494 W/m2
09:10 70.7 °F 63.5 °F 30.19 in NNE 2 mph 8 mph 78% 0.00 in 530 W/m2
09:20 72 °F 64.4 °F 30.19 in NE 2 mph 8 mph 77% 0.00 in 563 W/m2
09:30 73.4 °F 64.6 °F 30.20 in NE 2 mph 10 mph 74% 0.00 in 310 W/m2
09:40 74.5 °F 64.9 °F 30.19 in NNE 2 mph 9 mph 72% 0.00 in 281 W/m2
09:50 75.6 °F 65.1 °F 30.19 in NNE 3 mph 12 mph 70% 0.00 in 386 W/m2
10:00 76.5 °F 65.6 °F 30.19 in North 3 mph 8 mph 69% 0.00 in 567 W/m2
10:10 77.7 °F 66.2 °F 30.19 in NE 2 mph 12 mph 68% 0.00 in 685 W/m2
10:20 78.6 °F 66.3 °F 30.19 in NE 1 mph 7 mph 66% 0.00 in 723 W/m2
10:30 79.6 °F 66.3 °F 30.19 in North 5 mph 8 mph 64% 0.00 in 746 W/m2
10:40 80.3 °F 66.5 °F 30.18 in NNE 3 mph 8 mph 63% 0.00 in 771 W/m2
10:50 81.2 °F 66.5 °F 30.18 in North 3 mph 10 mph 61% 0.00 in 211 W/m2
11:00 81.9 °F 66.6 °F 30.18 in NNE 5 mph 13 mph 60% 0.00 in 272 W/m2
11:10 82.5 °F 66.7 °F 30.17 in NNE 5 mph 9 mph 59% 0.00 in 803 W/m2
11:20 83.3 °F 67 °F 30.17 in NNW 3 mph 7 mph 58% 0.00 in 211 W/m2
11:30 84.4 °F 67 °F 30.16 in North 3 mph 9 mph 56% 0.00 in 838 W/m2
11:40 85 °F 67.1 °F 30.16 in North 2 mph 9 mph 55% 0.00 in 847 W/m2
11:50 85.8 °F 67.8 °F 30.16 in WNW 3 mph 12 mph 55% 0.00 in 855 W/m2
12:00 86.9 °F 67.7 °F 30.15 in NNW 3 mph 8 mph 53% 0.00 in 861 W/m2
12:10 87.9 °F 68.1 °F 30.15 in North 2 mph 8 mph 52% 0.00 in 865 W/m2
12:20 88.6 °F 67 °F 30.14 in NNW 5 mph 9 mph 49% 0.00 in 868 W/m2
12:30 89.5 °F 67.2 °F 30.14 in NNW 2 mph 9 mph 48% 0.00 in 869 W/m2
12:40 90.4 °F 67.5 °F 30.13 in NNE 5 mph 8 mph 47% 0.00 in 868 W/m2
12:50 91 °F 66 °F 30.13 in North 7 mph 12 mph 44% 0.00 in 866 W/m2
13:00 91.6 °F 66.6 °F 30.12 in North 5 mph 13 mph 44% 0.00 in 862 W/m2
13:10 92.1 °F 66.4 °F 30.12 in North 3 mph 10 mph 43% 0.00 in 643 W/m2
13:20 92 °F 65.6 °F 30.12 in North 5 mph 12 mph 42% 0.00 in 850 W/m2
13:30 92.7 °F 66.2 °F 30.12 in North 6 mph 12 mph 42% 0.00 in 842 W/m2
13:40 93 °F 66.5 °F 30.11 in North 3 mph 13 mph 42% 0.00 in 832 W/m2
13:50 93.4 °F 65.4 °F 30.11 in North 6 mph 10 mph 40% 0.00 in 820 W/m2
14:00 93.6 °F 65.6 °F 30.11 in North 3 mph 12 mph 40% 0.00 in 807 W/m2
14:10 93.7 °F 65.7 °F 30.10 in NNW 3 mph 8 mph 40% 0.00 in 793 W/m2
14:20 93.7 °F 65.8 °F 30.09 in North 3 mph 11 mph 40% 0.00 in 335 W/m2
14:30 93 °F 65.1 °F 30.09 in North 3 mph 11 mph 40% 0.00 in 759 W/m2
14:40 93.3 °F 65.4 °F 30.09 in North 3 mph 8 mph 40% 0.00 in 698 W/m2
14:50 94.1 °F 65.4 °F 30.08 in North 2 mph 10 mph 39% 0.00 in 721 W/m2
15:00 94.5 °F 65.7 °F 30.09 in North 2 mph 8 mph 39% 0.00 in 700 W/m2
15:10 94.9 °F 65.4 °F 30.08 in North 3 mph 14 mph 38% 0.00 in 677 W/m2
15:20 95.4 °F 65.7 °F 30.08 in NNW 2 mph 10 mph 38% 0.00 in 654 W/m2
15:30 95.4 °F 65 °F 30.08 in NNE 5 mph 8 mph 37% 0.00 in 629 W/m2
15:40 95.2 °F 64.8 °F 30.08 in North 5 mph 13 mph 37% 0.00 in 604 W/m2
15:50 94.9 °F 65.4 °F 30.07 in North 5 mph 15 mph 38% 0.00 in 572 W/m2
16:00 95 °F 65.4 °F 30.07 in North 5 mph 13 mph 38% 0.00 in 549 W/m2
16:10 95 °F 65.4 °F 30.07 in North 3 mph 12 mph 38% 0.00 in 510 W/m2
16:20 94.8 °F 65.3 °F 30.07 in North 2 mph 10 mph 38% 0.00 in 446 W/m2
16:30 94.6 °F 65.1 °F 30.07 in NW 3 mph 10 mph 38% 0.00 in 442 W/m2
16:40 94.5 °F 64.9 °F 30.07 in North 5 mph 9 mph 38% 0.00 in 414 W/m2
16:50 94.3 °F 64.8 °F 30.07 in NNE 3 mph 9 mph 38% 0.00 in 358 W/m2
17:00 94.1 °F 65.4 °F 30.07 in North 2 mph 6 mph 39% 0.00 in 332 W/m2
17:10 93.8 °F 65.1 °F 30.07 in NNE 3 mph 8 mph 39% 0.00 in 305 W/m2
17:20 93.6 °F 64.9 °F 30.07 in NNE 2 mph 6 mph 39% 0.00 in 255 W/m2
17:30 93.3 °F 64.6 °F 30.07 in NE 2 mph 9 mph 39% 0.00 in 245 W/m2
17:40 92.7 °F 64.1 °F 30.07 in North 2 mph 8 mph 39% 0.00 in 208 W/m2
17:50 92.4 °F 64.5 °F 30.06 in ENE 2 mph 8 mph 40% 0.00 in 180 W/m2
18:00 91.9 °F 64.9 °F 30.07 in NE 2 mph 8 mph 41% 0.00 in 147 W/m2
18:10 91.4 °F 63.7 °F 30.06 in NNW 2 mph 8 mph 40% 0.00 in 123 W/m2
18:20 90.7 °F 63.7 °F 30.07 in North 2 mph 8 mph 41% 0.00 in 100 W/m2
18:30 90.3 °F 64.1 °F 30.07 in WSW 2 mph 8 mph 42% 0.00 in 79 W/m2
18:40 89.5 °F 64 °F 30.07 in NW 2 mph 7 mph 43% 0.00 in 60 W/m2
18:50 88.6 °F 63.9 °F 30.08 in North 2 mph 9 mph 44% 0.00 in 41 W/m2
19:00 87.8 °F 63.2 °F 30.07 in North 5 mph 9 mph 44% 0.00 in 24 W/m2
19:10 86.8 °F 62.9 °F 30.08 in North 3 mph 8 mph 45% 0.00 in 11 W/m2
19:20 86 °F 62.2 °F 30.08 in NNW 3 mph 8 mph 45% 0.00 in 4 W/m2
19:30 85.4 °F 61.6 °F 30.08 in North 3 mph 10 mph 45% 0.00 in 0 W/m2
19:40 84.9 °F 62.4 °F 30.08 in North 3 mph 10 mph 47% 0.00 in 0 W/m2
19:50 84.3 °F 62.5 °F 30.09 in NNW 5 mph 9 mph 48% 0.00 in 0 W/m2
20:00 83.8 °F 62 °F 30.09 in NNW 3 mph 8 mph 48% 0.00 in 0 W/m2
20:10 83.3 °F 62.2 °F 30.09 in NNW 2 mph 6 mph 49% 0.00 in 0 W/m2
20:20 82.9 °F 61.8 °F 30.09 in NNW 2 mph 7 mph 49% 0.00 in 0 W/m2
20:30 82.7 °F 61.6 °F 30.09 in NNW 3 mph 7 mph 49% 0.00 in 0 W/m2
20:40 81.9 °F 63 °F 30.10 in North 1 mph 7 mph 53% 0.00 in 0 W/m2
20:50 80.5 °F 62.3 °F 30.10 in SSE 1 mph 5 mph 54% 0.00 in 0 W/m2
21:00 79.6 °F 62.5 °F 30.10 in SSE 1 mph 3 mph 56% 0.00 in 0 W/m2
21:10 78.4 °F 62.4 °F 30.10 in SSE 2 mph 5 mph 58% 0.00 in 0 W/m2
21:20 77.8 °F 61.8 °F 30.11 in South 2 mph 5 mph 58% 0.00 in 0 W/m2
21:30 76.8 °F 61.4 °F 30.11 in South 1 mph 3 mph 59% 0.00 in 0 W/m2
21:40 75.5 °F 61.6 °F 30.11 in South 2 mph 5 mph 62% 0.00 in 0 W/m2
21:50 74.5 °F 61.1 °F 30.11 in SSE 2 mph 6 mph 63% 0.00 in 0 W/m2
22:00 73.7 °F 60.8 °F 30.11 in South 1 mph 6 mph 64% 0.00 in 0 W/m2
22:10 73.2 °F 60.7 °F 30.11 in Calm   3 mph 65% 0.00 in 0 W/m2
22:20 72.8 °F 61.2 °F 30.11 in West 1 mph 3 mph 67% 0.00 in 0 W/m2
22:30 72.4 °F 60.8 °F 30.11 in Calm   3 mph 67% 0.00 in 0 W/m2
22:40 71.9 °F 60.7 °F 30.11 in SW 1 mph 3 mph 68% 0.00 in 0 W/m2
22:50 71.3 °F 60.6 °F 30.11 in WSW 2 mph 2 mph 69% 0.00 in 0 W/m2
23:00 70.7 °F 60.4 °F 30.11 in WSW 1 mph 3 mph 70% 0.00 in 0 W/m2
23:10 70.2 °F 60.4 °F 30.11 in WSW 1 mph 3 mph 71% 0.00 in 0 W/m2
23:20 69.5 °F 60.1 °F 30.11 in Calm   2 mph 72% 0.00 in 0 W/m2
23:30 69.1 °F 60 °F 30.12 in SW 2 mph 3 mph 73% 0.00 in 0 W/m2
23:40 68.7 °F 59.7 °F 30.12 in SW 2 mph 3 mph 73% 0.00 in 0 W/m2
23:50 68.5 °F 59.8 °F 30.12 in SW 1 mph 3 mph 74% 0.00 in 0 W/m2
Knjazevac, Serbia
Compliments of Weather Underground - 2 mb